• Join FlightAware (Why Join?)
  • Login
  • US Flag 
 
02:55PM EST


 

Airport Tracker/Info


-or-


 

Live Flight TrackerFlight Track Log ✈ AFL150 ✈ 23-Feb-2014 ✈ UUEE / SVO - MUHA / HAV

Flight Track Log - Related Links

Times and Time Zones

All times are in EST time to prevent confusion due to time zone crossing. See the AFL150 flight status page for this flight to view local times or setup timezone preferences in your user account.

Time Position Orientation Groundspeed Altitude Reporting Facility
EST Latitude Longitude Course Direction KTS MPH feet Rate Location/Type
04:36AM 56.0997 37.0026 307° West  Level Estimated
04:37AM 56.1703 36.8307 306° West  Level Estimated
04:38AM 56.2407 36.6582 306° West  Level Estimated
04:39AM 56.3109 36.4851 306° West  Level Estimated
04:40AM 56.3808 36.3113 306° West  Level Estimated
04:41AM 56.4505 36.1368 306° West  Level Estimated
04:42AM 56.5200 35.9618 306° West  Level Estimated
04:43AM 56.5891 35.7860 306° West  Level Estimated
04:44AM 56.6581 35.6097 305° West  Level Estimated
04:45AM 56.7268 35.4327 305° West  Level Estimated
04:46AM 56.7952 35.2550 305° West  Level Estimated
04:47AM 56.8634 35.0767 305° West  Level Estimated
04:48AM 56.9313 34.8978 305° West  Level Estimated
04:49AM 56.9990 34.7182 305° West  Level Estimated
04:50AM 57.0664 34.5379 305° West  Level Estimated
04:51AM 57.1336 34.3570 304° West  Level Estimated
04:52AM 57.2005 34.1755 304° West  Level Estimated
04:53AM 57.2671 33.9933 304° West  Level Estimated
04:54AM 57.3335 33.8104 304° West  Level Estimated
04:55AM 57.3996 33.6268 304° West  Level Estimated
04:56AM 57.4655 33.4426 304° West  Level Estimated
04:57AM 57.5310 33.2578 304° West  Level Estimated
04:58AM 57.5963 33.0722 303° West  Level Estimated
04:59AM 57.6614 32.8860 303° West  Level Estimated
05:00AM 57.7261 32.6992 303° West  Level Estimated
05:01AM 57.7906 32.5116 303° West  Level Estimated
05:02AM 57.8548 32.3234 303° West  Level Estimated
05:03AM 57.9187 32.1346 303° West  Level Estimated
05:04AM 57.9823 31.9450 302° West  Level Estimated
05:05AM 58.0457 31.7548 302° West  Level Estimated
05:06AM 58.1087 31.5639 302° West  Level Estimated
05:07AM 58.1715 31.3723 302° West  Level Estimated
05:08AM 58.2340 31.1801 302° West  Level Estimated
05:09AM 58.2962 30.9872 302° West  Level Estimated
05:10AM 58.3581 30.7936 301° West  Level Estimated
05:11AM 58.4198 30.5993 301° West  Level Estimated
05:12AM 58.4811 30.4043 301° West  Level Estimated
05:13AM 58.5421 30.2087 301° West  Level Estimated
05:14AM 58.6028 30.0124 301° West  Level Estimated
05:15AM 58.6633 29.8154 301° West  Level Estimated
05:16AM 58.7234 29.6177 300° West  Level Estimated
05:17AM 58.7832 29.4193 300° West  Level Estimated
05:18AM 58.8427 29.2203 300° West  Level Estimated
05:19AM 58.9019 29.0205 300° West  Level Estimated
05:20AM 58.9608 28.8201 300° West  Level Estimated
05:21AM 59.0194 28.6190 300° West  Level Estimated
05:22AM 59.0777 28.4173 299° West  Level Estimated
05:23AM 59.1357 28.2148 299° West  Level Estimated
05:24AM 59.1933 28.0116 299° West  Level Estimated
05:25AM 59.2506 27.8078 299° West  Level Estimated
05:26AM 59.3077 27.6033 299° West  Level Estimated
05:27AM 59.3643 27.3981 299° West  Level Estimated
05:28AM 59.4207 27.1922 298° West  Level Estimated
05:29AM 59.4768 26.9856 298° West  Level Estimated
05:30AM 59.5325 26.7783 298° West  Level Estimated
05:31AM 59.5878 26.5704 298° West  Level Estimated
05:32AM 59.6429 26.3618 298° West  Level Estimated
05:33AM 59.6976 26.1525 297° West  Level Estimated
05:34AM 59.7520 25.9425 297° West  Level Estimated
05:35AM 59.8061 25.7318 297° West  Level Estimated
05:36AM 59.8598 25.5204 297° West  Level Estimated
05:37AM 59.9131 25.3084 297° West  Level Estimated
05:38AM 59.9662 25.0957 297° West  Level Estimated
05:39AM 60.0189 24.8823 296° West  Level Estimated
05:40AM 60.0712 24.6682 296° West  Level Estimated
05:41AM 60.1232 24.4534 296° West  Level Estimated
05:42AM 60.1749 24.2380 296° West  Level Estimated
05:43AM 60.2262 24.0219 296° West  Level Estimated
05:44AM 60.2771 23.8051 295° West  Level Estimated
05:45AM 60.3277 23.5876 295° West  Level Estimated
05:46AM 60.3779 23.3695 295° West  Level Estimated
05:47AM 60.4278 23.1507 295° West  Level Estimated
05:48AM 60.4773 22.9312 295° West  Level Estimated
05:49AM 60.5265 22.7110 294° West  Level Estimated
05:50AM 60.5753 22.4902 294° West  Level Estimated
05:51AM 60.6237 22.2687 294° West  Level Estimated
05:52AM 60.6718 22.0466 294° West  Level Estimated
05:53AM 60.7195 21.8238 294° West  Level Estimated
05:54AM 60.7668 21.6003 294° West  Level Estimated
05:55AM 60.8137 21.3762 293° West  Level Estimated
05:56AM 60.8603 21.1514 293° West  Level Estimated
05:57AM 60.9065 20.9260 293° West  Level Estimated
05:58AM 60.9523 20.6999 293° West  Level Estimated
05:59AM 60.9977 20.4732 293° West  Level Estimated
06:00AM 61.0428 20.2458 292° West  Level Estimated
06:01AM 61.0875 20.0178 292° West  Level Estimated
06:02AM 61.1318 19.7892 292° West  Level Estimated
06:03AM 61.1757 19.5599 292° West  Level Estimated
06:04AM 61.2192 19.3299 292° West  Level Estimated
06:05AM 61.2623 19.0993 291° West  Level Estimated
06:06AM 61.3050 18.8681 291° West  Level Estimated
06:07AM 61.3474 18.6363 291° West  Level Estimated
06:08AM 61.3893 18.4039 291° West  Level Estimated
06:09AM 61.4309 18.1708 291° West  Level Estimated
06:10AM 61.4720 17.9371 290° West  Level Estimated
06:11AM 61.5127 17.7028 290° West  Level Estimated
06:12AM 61.5531 17.4678 290° West  Level Estimated
06:13AM 61.5930 17.2323 290° West  Level Estimated
06:14AM 61.6325 16.9962 290° West  Level Estimated
06:15AM 61.6717 16.7594 289° West  Level Estimated
06:16AM 61.7104 16.5221 289° West  Level Estimated
06:17AM 61.7487 16.2841 289° West  Level Estimated
06:18AM 61.7866 16.0456 289° West  Level Estimated
06:19AM 61.8240 15.8065 288° West  Level Estimated
06:20AM 61.8611 15.5668 288° West  Level Estimated
06:21AM 61.8977 15.3266 288° West  Level Estimated
06:22AM 61.9339 15.0857 288° West  Level Estimated
06:23AM 61.9697 14.8443 288° West  Level Estimated
06:24AM 62.0051 14.6024 287° West  Level Estimated
06:25AM 62.0401 14.3598 287° West  Level Estimated
06:26AM 62.0746 14.1167 287° West  Level Estimated
06:27AM 62.1087 13.8731 287° West  Level Estimated
06:28AM 62.1424 13.6289 287° West  Level Estimated
06:29AM 62.1756 13.3842 286° West  Level Estimated
06:30AM 62.2084 13.1390 286° West  Level Estimated
06:31AM 62.2408 12.8932 286° West  Level Estimated
06:32AM 62.2727 12.6469 286° West  Level Estimated
06:33AM 62.3042 12.4001 285° West  Level Estimated
06:34AM 62.3353 12.1527 285° West  Level Estimated
06:35AM 62.3659 11.9049 285° West  Level Estimated
06:36AM 62.3961 11.6565 285° West  Level Estimated
06:37AM 62.4258 11.4077 285° West  Level Estimated
06:38AM 62.4551 11.1583 284° West  Level Estimated
06:39AM 62.4840 10.9085 284° West  Level Estimated
06:40AM 62.5124 10.6582 284° West  Level Estimated
06:41AM 62.5403 10.4074 284° West  Level Estimated
06:42AM 62.5678 10.1561 283° West  Level Estimated
06:43AM 62.5949 9.9044 283° West  Level Estimated
06:44AM 62.6215 9.6523 283° West  Level Estimated
06:45AM 62.6476 9.3997 283° West  Level Estimated
06:46AM 62.6733 9.1466 283° West  Level Estimated
06:47AM 62.6985 8.8931 282° West  Level Estimated
06:48AM 62.7233 8.6392 282° West  Level Estimated
06:49AM 62.7476 8.3849 282° West  Level Estimated
06:50AM 62.7715 8.1301 282° West  Level Estimated
06:51AM 62.7948 7.8749 281° West  Level Estimated
06:52AM 62.8178 7.6194 281° West  Level Estimated
06:53AM 62.8402 7.3634 281° West  Level Estimated
06:54AM 62.8622 7.1071 281° West  Level Estimated
06:55AM 62.8838 6.8503 281° West  Level Estimated
06:56AM 62.9048 6.5932 280° West  Level Estimated
06:57AM 62.9254 6.3358 280° West  Level Estimated
06:58AM 62.9455 6.0779 280° West  Level Estimated
06:59AM 62.9652 5.8198 280° West  Level Estimated
07:00AM 62.9844 5.5612 279° West  Level Estimated
07:01AM 63.0031 5.3024 279° West  Level Estimated
07:02AM 63.0213 5.0432 279° West  Level Estimated
07:03AM 63.0391 4.7837 279° West  Level Estimated
07:04AM 63.0564 4.5239 278° West  Level Estimated
07:05AM 63.0732 4.2638 278° West  Level Estimated
07:06AM 63.0895 4.0034 278° West  Level Estimated
07:07AM 63.1054 3.7427 278° West  Level Estimated
07:08AM 63.1208 3.4817 278° West  Level Estimated
07:09AM 63.1357 3.2204 277° West  Level Estimated
07:10AM 63.1501 2.9589 277° West  Level Estimated
07:11AM 63.1640 2.6971 277° West  Level Estimated
07:12AM 63.1775 2.4351 277° West  Level Estimated
07:13AM 63.1904 2.1728 276° West  Level Estimated
07:14AM 63.2029 1.9103 276° West  Level Estimated
07:15AM 63.2149 1.6476 276° West  Level Estimated
07:16AM 63.2265 1.3847 276° West  Level Estimated
07:17AM 63.2375 1.1216 275° West  Level Estimated
07:18AM 63.2480 0.8582 275° West  Level Estimated
07:19AM 63.2581 0.5947 275° West  Level Estimated
07:20AM 63.2677 0.3310 275° West  Level Estimated
07:21AM 63.2767 0.0671 274° West  Level Estimated
07:22AM 63.2853 -0.1969 274° West  Level Estimated
07:23AM 63.2934 -0.4611 274° West  Level Estimated
07:24AM 63.3011 -0.7254 274° West  Level Estimated
07:25AM 63.3082 -0.9899 274° West  Level Estimated
07:26AM 63.3148 -1.2544 273° West  Level Estimated
07:27AM 63.3210 -1.5192 273° West  Level Estimated
07:28AM 63.3266 -1.7840 273° West  Level Estimated
07:29AM 63.3318 -2.0489 273° West  Level Estimated
07:30AM 63.3365 -2.3139 272° West  Level Estimated
07:31AM 63.3407 -2.5790 272° West  Level Estimated
07:32AM 63.3443 -2.8442 272° West  Level Estimated
07:33AM 63.3475 -3.1094 272° West  Level Estimated
07:34AM 63.3503 -3.3747 271° West  Level Estimated
07:35AM 63.3525 -3.6400 271° West  Level Estimated
07:36AM 63.3542 -3.9053 271° West  Level Estimated
07:37AM 63.3554 -4.1707 271° West  Level Estimated
07:38AM 63.3561 -4.4361 270° West  Level Estimated
07:39AM 63.3564 -4.7015 270° West  Level Estimated
07:40AM 63.3561 -4.9669 270° West  Level Estimated
07:41AM 63.3554 -5.2323 270° West  Level Estimated
07:42AM 63.3541 -5.4977 270° West  Level Estimated
07:43AM 63.3524 -5.7631 269° West  Level Estimated
07:44AM 63.3502 -6.0284 269° West  Level Estimated
07:45AM 63.3475 -6.2937 269° West  Level Estimated
07:46AM 63.3443 -6.5589 269° West  Level Estimated
07:47AM 63.3406 -6.8241 268° West  Level Estimated
07:48AM 63.3364 -7.0892 268° West  Level Estimated
07:49AM 63.3317 -7.3542 268° West  Level Estimated
07:50AM 63.3265 -7.6191 268° West  Level Estimated
07:51AM 63.3209 -7.8839 267° West  Level Estimated
07:52AM 63.3147 -8.1486 267° West  Level Estimated
07:53AM 63.3081 -8.4132 267° West  Level Estimated
07:54AM 63.3009 -8.6777 267° West  Level Estimated
07:55AM 63.2933 -8.9420 266° West  Level Estimated
07:56AM 63.2852 -9.2062 266° West  Level Estimated
07:57AM 63.2766 -9.4702 266° West  Level Estimated
07:58AM 63.2675 -9.7341 266° West  Level Estimated
07:59AM 63.2579 -9.9978 266° West  Level Estimated
08:00AM 63.2478 -10.2613 265° West  Level Estimated
08:01AM 63.2373 -10.5246 265° West  Level Estimated
08:02AM 63.2262 -10.7877 265° West  Level Estimated
08:03AM 63.2147 -11.0507 265° West  Level Estimated
08:04AM 63.2027 -11.3134 264° West  Level Estimated
08:05AM 63.1902 -11.5759 264° West  Level Estimated
08:06AM 63.1772 -11.8381 264° West  Level Estimated
08:07AM 63.1637 -12.1002 264° West  Level Estimated
08:08AM 63.1498 -12.3619 263° West  Level Estimated
08:09AM 63.1354 -12.6234 263° West  Level Estimated
08:10AM 63.1205 -12.8847 263° West  Level Estimated
08:11AM 63.1051 -13.1457 263° West  Level Estimated
08:12AM 63.0892 -13.4064 262° West  Level Estimated
08:13AM 63.0729 -13.6668 262° West  Level Estimated
08:14AM 63.0560 -13.9269 262° West  Level Estimated
08:15AM 63.0387 -14.1867 262° West  Level Estimated
08:16AM 63.0210 -14.4462 262° West  Level Estimated
08:17AM 63.0027 -14.7054 261° West  Level Estimated
08:18AM 62.9840 -14.9642 261° West  Level Estimated
08:19AM 62.9648 -15.2227 261° West  Level Estimated
08:20AM 62.9451 -15.4809 261° West  Level Estimated
08:21AM 62.9250 -15.7387 260° West  Level Estimated
08:22AM 62.9044 -15.9962 260° West  Level Estimated
08:23AM 62.8833 -16.2533 260° West  Level Estimated
08:24AM 62.8618 -16.5100 260° West  Level Estimated
08:25AM 62.8398 -16.7663 259° West  Level Estimated
08:26AM 62.8173 -17.0223 259° West  Level Estimated
08:27AM 62.7943 -17.2778 259° West  Level Estimated
08:28AM 62.7710 -17.5330 259° West  Level Estimated
08:29AM 62.7471 -17.7878 259° West  Level Estimated
08:30AM 62.7228 -18.0421 258° West  Level Estimated
08:31AM 62.6980 -18.2960 258° West  Level Estimated
08:32AM 62.6727 -18.5495 258° West  Level Estimated
08:33AM 62.6470 -18.8025 258° West  Level Estimated
08:34AM 62.6209 -19.0551 257° West  Level Estimated
08:35AM 62.5943 -19.3073 257° West  Level Estimated
08:36AM 62.5672 -19.5590 257° West  Level Estimated
08:37AM 62.5397 -19.8102 257° West  Level Estimated
08:38AM 62.5118 -20.0610 257° West  Level Estimated
08:39AM 62.4833 -20.3113 256° West  Level Estimated
08:40AM 62.4545 -20.5611 256° West  Level Estimated
08:41AM 62.4252 -20.8104 256° West  Level Estimated
08:42AM 62.3955 -21.0593 256° West  Level Estimated
08:43AM 62.3653 -21.3076 255° West  Level Estimated
08:44AM 62.3346 -21.5555 255° West  Level Estimated
08:45AM 62.3036 -21.8028 255° West  Level Estimated
08:46AM 62.2721 -22.0496 255° West  Level Estimated
08:47AM 62.2401 -22.2959 255° West  Level Estimated
08:48AM 62.2077 -22.5417 254° West  Level Estimated
08:49AM 62.1749 -22.7869 254° West  Level Estimated
08:50AM 62.1417 -23.0316 254° West  Level Estimated
08:51AM 62.1080 -23.2758 254° West  Level Estimated
08:52AM 62.0739 -23.5194 253° West  Level Estimated
08:53AM 62.0394 -23.7625 253° West  Level Estimated
08:54AM 62.0044 -24.0050 253° West  Level Estimated
08:55AM 61.9690 -24.2470 253° West  Level Estimated
08:56AM 61.9332 -24.4883 253° West  Level Estimated
08:57AM 61.8970 -24.7292 252° West  Level Estimated
08:58AM 61.8603 -24.9694 252° West  Level Estimated
08:59AM 61.8233 -25.2091 252° West  Level Estimated
09:00AM 61.7858 -25.4482 252° West  Level Estimated
09:01AM 61.7479 -25.6867 252° West  Level Estimated
09:02AM 61.7096 -25.9246 251° West  Level Estimated
09:03AM 61.6708 -26.1619 251° West  Level Estimated
09:04AM 61.6317 -26.3987 251° West  Level Estimated
09:05AM 61.5922 -26.6348 251° West  Level Estimated
09:06AM 61.5522 -26.8703 250° West  Level Estimated
09:07AM 61.5119 -27.1052 250° West  Level Estimated
09:08AM 61.4711 -27.3395 250° West  Level Estimated
09:09AM 61.4300 -27.5732 250° West  Level Estimated
09:10AM 61.3884 -27.8063 250° West  Level Estimated
09:11AM 61.3465 -28.0387 249° West  Level Estimated
09:12AM 61.3041 -28.2705 249° West  Level Estimated
09:13AM 61.2614 -28.5017 249° West  Level Estimated
09:14AM 61.2183 -28.7323 249° West  Level Estimated
09:15AM 61.1748 -28.9622 249° West  Level Estimated
09:16AM 61.1308 -29.1915 248° West  Level Estimated
09:17AM 61.0865 -29.4202 248° West  Level Estimated
09:18AM 61.0419 -29.6482 248° West  Level Estimated
09:19AM 60.9968 -29.8755 248° West  Level Estimated
09:20AM 60.9513 -30.1022 248° West  Level Estimated
09:21AM 60.9055 -30.3283 247° West  Level Estimated
09:22AM 60.8593 -30.5537 247° West  Level Estimated
09:23AM 60.8127 -30.7785 247° West  Level Estimated
09:24AM 60.7658 -31.0026 247° West  Level Estimated
09:25AM 60.7184 -31.2261 247° West  Level Estimated
09:26AM 60.6707 -31.4489 246° West  Level Estimated
09:27AM 60.6227 -31.6710 246° West  Level Estimated
09:28AM 60.5742 -31.8924 246° West  Level Estimated
09:29AM 60.5254 -32.1132 246° West  Level Estimated
09:30AM 60.4763 -32.3334 246° West  Level Estimated
09:31AM 60.4268 -32.5528 246° West  Level Estimated
09:32AM 60.3769 -32.7716 245° Southwest  Level Estimated
09:33AM 60.3266 -32.9897 245° Southwest  Level Estimated
09:34AM 60.2760 -33.2072 245° Southwest  Level Estimated
09:35AM 60.2251 -33.4240 245° Southwest  Level Estimated
09:36AM 60.1738 -33.6401 245° Southwest  Level Estimated
09:37AM 60.1221 -33.8555 244° Southwest  Level Estimated
09:38AM 60.0701 -34.0702 244° Southwest  Level Estimated
09:39AM 60.0178 -34.2843 244° Southwest  Level Estimated
09:40AM 59.9651 -34.4977 244° Southwest  Level Estimated
09:41AM 59.9120 -34.7104 244° Southwest  Level Estimated
09:42AM 59.8586 -34.9224 243° Southwest  Level Estimated
09:43AM 59.8049 -35.1338 243° Southwest  Level Estimated
09:44AM 59.7509 -35.3444 243° Southwest  Level Estimated
09:45AM 59.6965 -35.5544 243° Southwest  Level Estimated
09:46AM 59.6417 -35.7637 243° Southwest  Level Estimated
09:47AM 59.5867 -35.9723 243° Southwest  Level Estimated
09:48AM 59.5313 -36.1803 242° Southwest  Level Estimated
09:49AM 59.4756 -36.3875 242° Southwest  Level Estimated
09:50AM 59.4195 -36.5941 242° Southwest  Level Estimated
09:51AM 59.3632 -36.7999 242° Southwest  Level Estimated
09:52AM 59.3064 -37.0051 242° Southwest  Level Estimated
09:53AM 59.2494 -37.2096 241° Southwest  Level Estimated
09:54AM 59.1921 -37.4135 241° Southwest  Level Estimated
09:55AM 59.1344 -37.6166 241° Southwest  Level Estimated
09:56AM 59.0765 -37.8191 241° Southwest  Level Estimated
09:57AM 59.0182 -38.0208 241° Southwest  Level Estimated
09:58AM 58.9596 -38.2219 241° Southwest  Level Estimated
09:59AM 58.9007 -38.4223 240° Southwest  Level Estimated
10:00AM 58.8414 -38.6220 240° Southwest  Level Estimated
10:01AM 58.7819 -38.8211 240° Southwest  Level Estimated
10:02AM 58.7221 -39.0194 240° Southwest  Level Estimated
10:03AM 58.6620 -39.2171 240° Southwest  Level Estimated
10:04AM 58.6015 -39.4141 240° Southwest  Level Estimated
10:05AM 58.5408 -39.6104 239° Southwest  Level Estimated
10:06AM 58.4798 -39.8060 239° Southwest  Level Estimated
10:07AM 58.4184 -40.0009 239° Southwest  Level Estimated
10:08AM 58.3568 -40.1952 239° Southwest  Level Estimated
10:09AM 58.2949 -40.3888 239° Southwest  Level Estimated
10:10AM 58.2327 -40.5817 239° Southwest  Level Estimated
10:11AM 58.1702 -40.7739 238° Southwest  Level Estimated
10:12AM 58.1074 -40.9655 238° Southwest  Level Estimated
10:13AM 58.0443 -41.1563 238° Southwest  Level Estimated
10:14AM 57.9809 -41.3465 238° Southwest  Level Estimated
10:15AM 57.9173 -41.5361 238° Southwest  Level Estimated
10:16AM 57.8534 -41.7249 238° Southwest  Level Estimated
10:17AM 57.7892 -41.9131 237° Southwest  Level Estimated
10:18AM 57.7247 -42.1006 237° Southwest  Level Estimated
10:19AM 57.6600 -42.2875 237° Southwest  Level Estimated
10:20AM 57.5949 -42.4737 237° Southwest  Level Estimated
10:21AM 57.5296 -42.6592 237° Southwest  Level Estimated
10:22AM 57.4641 -42.8440 237° Southwest  Level Estimated
10:23AM 57.3982 -43.0282 236° Southwest  Level Estimated
10:24AM 57.3321 -43.2118 236° Southwest  Level Estimated
10:25AM 57.2657 -43.3946 236° Southwest  Level Estimated
10:26AM 57.1991 -43.5768 236° Southwest  Level Estimated
10:27AM 57.1322 -43.7584 236° Southwest  Level Estimated
10:28AM 57.0650 -43.9393 236° Southwest  Level Estimated
10:29AM 56.9976 -44.1195 236° Southwest  Level Estimated
10:30AM 56.9299 -44.2991 235° Southwest  Level Estimated
10:31AM 56.8620 -44.4780 235° Southwest  Level Estimated
10:32AM 56.7938 -44.6563 235° Southwest  Level Estimated
10:33AM 56.7253 -44.8340 235° Southwest  Level Estimated
10:34AM 56.6566 -45.0109 235° Southwest  Level Estimated
10:35AM 56.5877 -45.1873 235° Southwest  Level Estimated
10:36AM 56.5185 -45.3630 235° Southwest  Level Estimated
10:37AM 56.4490 -45.5381 234° Southwest  Level Estimated
10:38AM 56.3793 -45.7125 234° Southwest  Level Estimated
10:39AM 56.3094 -45.8862 234° Southwest  Level Estimated
10:40AM 56.2392 -46.0594 234° Southwest  Level Estimated
10:41AM 56.1688 -46.2319 234° Southwest  Level Estimated
10:42AM 56.0981 -46.4038 234° Southwest  Level Estimated
10:43AM 56.0272 -46.5750 234° Southwest  Level Estimated
10:44AM 55.9561 -46.7457 233° Southwest  Level Estimated
10:45AM 55.8847 -46.9156 233° Southwest  Level Estimated
10:46AM 55.8131 -47.0850 233° Southwest  Level Estimated
10:47AM 55.7413 -47.2537 233° Southwest  Level Estimated
10:48AM 55.6692 -47.4219 233° Southwest  Level Estimated
10:49AM 55.5969 -47.5894 233° Southwest  Level Estimated
10:50AM 55.5244 -47.7563 233° Southwest  Level Estimated
10:51AM 55.4517 -47.9225 232° Southwest  Level Estimated
10:52AM 55.3787 -48.0882 232° Southwest  Level Estimated
10:53AM 55.3055 -48.2532 232° Southwest  Level Estimated
10:54AM 55.2321 -48.4177 232° Southwest  Level Estimated
10:55AM 55.1585 -48.5815 232° Southwest  Level Estimated
10:56AM 55.0846 -48.7447 232° Southwest  Level Estimated
10:57AM 55.0115 -48.9053 232° Southwest  Level Estimated
10:58AM 54.9382 -49.0652 231° Southwest  Level Estimated
10:59AM 54.8647 -49.2245 231° Southwest  Level Estimated
11:00AM 54.7910 -49.3833 231° Southwest  Level Estimated
11:01AM 54.7170 -49.5415 231° Southwest  Level Estimated
11:02AM 54.6428 -49.6992 231° Southwest  Level Estimated
11:02AM 62.8833 -57.5333 230° Southwest 440 506 36,000  Level Gander Center
11:03AM 54.5684 -49.8563 231° Southwest  Level Estimated
11:03AM 62.8167 -57.7333 234° Southwest 440 506 36,000  Level Gander Center
11:04AM 54.4939 -50.0128 231° Southwest  Level Estimated
11:04AM 62.7333 -57.9500 230° Southwest 440 506 36,000  Level Gander Center
11:05AM 54.4191 -50.1688 231° Southwest  Level Estimated
11:05AM 62.6667 -58.1833 238° Southwest 440 506 36,000  Level Gander Center
11:05AM 62.6167 -58.2167 197° South 440 506 36,000  Level Montreal Center
11:06AM 54.3441 -50.3242 230° Southwest  Level Estimated
11:06AM 62.5500 -58.4500 238° Southwest 440 506 36,000  Level Montreal Center
11:07AM 54.2689 -50.4790 230° Southwest  Level Estimated
11:07AM 62.4667 -58.6333 226° Southwest 440 506 36,000  Level Montreal Center
11:08AM 62.4000 -58.8667 238° Southwest 440 506 36,000  Level Montreal Center
11:09AM 62.3333 -59.0500 232° Southwest 430 495 36,000  Level Montreal Center
11:10AM 62.2500 -59.2833 233° Southwest 440 506 36,000  Level Montreal Center
11:11AM 62.1667 -59.4667 226° Southwest 440 506 36,000  Level Montreal Center
11:13AM 62.0667 -59.8333 240° Southwest 440 506 36,000  Level Gander Center
11:13AM 62.0333 -59.8667 205° Southwest 440 506 36,000  Level Montreal Center
11:14AM 61.9333 -60.0667 223° Southwest 440 506 36,000  Level Montreal Center
11:15AM 61.8500 -60.2167 220° Southwest 440 506 36,000  Level Montreal Center
11:16AM 61.7500 -60.4167 223° Southwest 440 506 36,000  Level Montreal Center
11:17AM 61.6667 -60.5667 221° Southwest 440 506 36,000  Level Montreal Center
11:18AM 61.5667 -60.7667 224° Southwest 440 506 36,000  Level Montreal Center
11:19AM 61.4833 -60.9167 221° Southwest 430 495 36,000  Level Montreal Center
11:20AM 61.3833 -61.0667 216° Southwest 450 518 36,000  Level Montreal Center
11:21AM 61.3000 -61.2500 227° Southwest 440 506 36,000  Level Montreal Center
11:22AM 61.2000 -61.3833 213° Southwest 440 506 36,000  Level Montreal Center
11:23AM 61.1000 -61.5833 224° Southwest 430 495 36,000  Level Montreal Center
11:24AM 61.0167 -61.7167 218° Southwest 430 495 36,000  Level Montreal Center
11:25AM 60.9333 -61.8667 221° Southwest 430 495 36,000  Level Montreal Center
11:26AM 60.8333 -62.0500 222° Southwest 420 483 36,000  Level Montreal Center
11:27AM 60.7333 -62.2000 216° Southwest 430 495 36,000  Level Montreal Center
11:28AM 60.6500 -62.3667 224° Southwest 440 506 36,000  Level Montreal Center
11:29AM 60.5667 -62.5667 230° Southwest 430 495 36,000  Level Montreal Center
11:30AM 60.5333 -62.8000 254° West 430 495 36,000  Level Montreal Center
11:31AM 60.5000 -63.0500 255° West 430 495 36,000  Level Montreal Center
11:32AM 60.4500 -63.2833 247° West 430 495 36,000  Level Montreal Center
11:33AM 60.4000 -63.5000 245° Southwest 430 495 36,000  Level Montreal Center
11:34AM 60.3667 -63.7333 254° West 430 495 36,000  Level Montreal Center
11:35AM 60.3333 -63.9500 253° West 430 495 36,000  Level Montreal Center
11:36AM 60.2833 -64.1667 245° Southwest 430 495 36,000  Level Montreal Center
11:37AM 60.2333 -64.3833 245° Southwest 440 506 36,000  Level Montreal Center
11:38AM 60.2000 -64.6000 253° West 440 506 36,000  Level Montreal Center
11:39AM 60.1500 -64.8667 249° West 440 506 36,000  Level Montreal Center
11:40AM 60.0833 -65.0500 234° Southwest 440 506 36,000  Level Montreal Center
11:41AM 60.0167 -65.2500 236° Southwest 450 518 36,000  Level Montreal Center
11:42AM 59.9000 -65.4167 216° Southwest 450 518 36,000  Level Montreal Center
11:43AM 59.8167 -65.6167 230° Southwest 450 518 36,000  Level Montreal Center
11:44AM 59.7167 -65.7833 220° Southwest 450 518 36,000  Level Montreal Center
11:45AM 59.6333 -65.9333 222° Southwest 450 518 36,000  Level Montreal Center
11:46AM 59.5333 -66.1000 220° Southwest 450 518 36,000  Level Montreal Center
11:47AM 59.4333 -66.2667 220° Southwest 450 518 36,000  Level Montreal Center
11:48AM 59.3333 -66.4167 217° Southwest 460 529 36,000  Level Montreal Center
11:49AM 59.2500 -66.5667 223° Southwest 460 529 36,000  Level Montreal Center
11:50AM 59.1500 -66.7333 221° Southwest 460 529 36,000  Level Montreal Center
11:51AM 59.0500 -66.8833 218° Southwest 460 529 36,000  Level Montreal Center
11:52AM 58.9500 -67.0500 221° Southwest 460 529 36,000  Level Montreal Center
11:53AM 58.8500 -67.2000 218° Southwest 460 529 36,000  Level Montreal Center
11:54AM 58.7500 -67.3667 221° Southwest 460 529 36,000  Level Montreal Center
11:55AM 58.6500 -67.5500 224° Southwest 460 529 36,000  Level Montreal Center
11:56AM 58.5667 -67.7000 223° Southwest 460 529 36,000  Level Montreal Center
11:57AM 58.4500 -67.8500 214° Southwest 460 529 36,000  Level Montreal Center
11:58AM 58.3500 -68.0000 218° Southwest 460 529 36,000  Level Montreal Center
11:59AM 58.2500 -68.1500 218° Southwest 470 541 36,000  Level Montreal Center
12:00PM 58.1500 -68.3333 224° Southwest 480 552 36,000  Level Montreal Center
12:01PM 58.0333 -68.4833 214° Southwest 490 564 36,000  Level Montreal Center
12:02PM 57.9333 -68.6333 219° Southwest 460 529 36,000  Level Montreal Center
12:03PM 57.8167 -68.7833 214° Southwest 460 529 36,000  Level Montreal Center
12:04PM 57.7167 -68.9333 219° Southwest 460 529 36,000  Level Montreal Center
12:05PM 57.6167 -69.0500 212° Southwest 460 529 36,000  Level Montreal Center
12:06PM 57.5167 -69.1833 216° Southwest 460 529 36,000  Level Montreal Center
12:07PM 57.4167 -69.3333 219° Southwest 460 529 36,000  Level Montreal Center
12:08PM 57.3167 -69.4833 219° Southwest 460 529 36,000  Level Montreal Center
12:09PM 57.2000 -69.6167 212° Southwest 460 529 36,000  Level Montreal Center
12:10PM 57.0833 -69.7333 209° Southwest 460 529 36,000  Level Montreal Center
12:11PM 57.0000 -69.8667 221° Southwest 460 529 36,000  Level Montreal Center
12:12PM 56.8833 -70.0167 215° Southwest 460 529 36,000  Level Montreal Center
12:13PM 56.7667 -70.1500 212° Southwest 460 529 36,000  Level Montreal Center
12:14PM 56.6833 -70.2833 221° Southwest 460 529 36,000  Level Montreal Center
12:15PM 56.5667 -70.4333 215° Southwest 460 529 36,000  Level Montreal Center
12:16PM 56.4500 -70.5667 212° Southwest 460 529 36,000  Level Montreal Center
12:17PM 56.3667 -70.7000 222° Southwest 460 529 36,000  Level Montreal Center
12:18PM 56.2500 -70.8333 212° Southwest 470 541 36,000  Level Montreal Center
12:19PM 56.1333 -70.9500 209° Southwest 470 541 36,000  Level Montreal Center
12:20PM 56.0333 -71.0833 217° Southwest 460 529 36,000  Level Montreal Center
12:21PM 55.9333 -71.2167 217° Southwest 460 529 36,000  Level Montreal Center
12:22PM 55.8167 -71.3500 213° Southwest 460 529 36,000  Level Montreal Center
12:23PM 55.7000 -71.4833 213° Southwest 460 529 36,000  Level Montreal Center
12:24PM 55.6000 -71.5833 209° Southwest 450 518 36,000  Level Montreal Center
12:25PM 55.4833 -71.7167 213° Southwest 460 529 36,000  Level Montreal Center
12:26PM 55.3833 -71.8333 214° Southwest 460 529 36,000  Level Montreal Center
12:27PM 55.2833 -71.9667 217° Southwest 460 529 36,000  Level Montreal Center
12:28PM 55.1667 -72.1000 213° Southwest 460 529 36,000  Level Montreal Center
12:29PM 55.0667 -72.2000 210° Southwest 460 529 36,000  Level Montreal Center
12:30PM 54.9500 -72.3333 213° Southwest 460 529 36,000  Level Montreal Center
12:31PM 54.8500 -72.4500 214° Southwest 460 529 36,000  Level Montreal Center
12:32PM 54.7333 -72.5833 213° Southwest 460 529 36,000  Level Montreal Center
12:33PM 54.6333 -72.7000 214° Southwest 460 529 36,000  Level Montreal Center
12:34PM 54.5167 -72.8333 214° Southwest 470 541 36,000  Level Montreal Center
12:35PM 54.4167 -72.9500 214° Southwest 470 541 36,000  Level Montreal Center
12:36PM 54.3000 -73.0833 214° Southwest 460 529 36,000  Level Montreal Center
12:37PM 54.1833 -73.1667 203° Southwest 460 529 36,000  Level Montreal Center
12:38PM 54.0833 -73.3000 218° Southwest 470 541 36,000  Level Montreal Center
12:39PM 53.9667 -73.4167 210° Southwest 460 529 36,000  Level Montreal Center
12:40PM 53.8500 -73.5333 211° Southwest 460 529 36,000  Level Montreal Center
12:41PM 53.7500 -73.6500 215° Southwest 460 529 36,000  Level Montreal Center
12:42PM 53.6333 -73.7500 207° Southwest 460 529 36,000  Level Montreal Center
12:43PM 53.5167 -73.8333 203° Southwest 460 529 36,000  Level Montreal Center
12:44PM 53.4000 -73.9500 211° Southwest 460 529 36,000  Level Montreal Center
12:45PM 53.2833 -74.0500 207° Southwest 460 529 36,000  Level Montreal Center
12:46PM 53.1667 -74.1333 203° Southwest 460 529 36,000  Level Montreal Center
12:47PM 53.0500 -74.2333 207° Southwest 460 529 36,000  Level Montreal Center
12:48PM 52.9500 -74.3500 215° Southwest 460 529 36,000  Level Montreal Center
12:49PM 52.8333 -74.4333 203° Southwest 460 529 36,000  Level Montreal Center
12:50PM 52.7167 -74.5167 203° Southwest 460 529 36,000  Level Montreal Center
12:51PM 52.6167 -74.6000 207° Southwest 460 529 36,000  Level Montreal Center
12:52PM 52.4833 -74.7167 208° Southwest 460 529 36,000  Level Montreal Center
12:53PM 52.3667 -74.8000 204° Southwest 460 529 36,000  Level Montreal Center
12:54PM 52.2500 -74.9000 208° Southwest 460 529 36,000  Level Montreal Center
12:55PM 52.1333 -74.9833 204° Southwest 460 529 36,000  Level Montreal Center
12:56PM 52.0167 -75.0667 204° Southwest 470 541 36,000  Level Montreal Center
12:57PM 51.9000 -75.1667 208° Southwest 470 541 36,000  Level Montreal Center
12:58PM 51.7833 -75.2500 204° Southwest 470 541 36,000  Level Montreal Center
12:59PM 51.6500 -75.3333 201° Southwest 460 529 36,000  Level Montreal Center
01:00PM 51.5500 -75.4167 207° Southwest 460 529 36,000  Level Montreal Center
01:01PM 51.4333 -75.5333 212° Southwest 460 529 36,000  Level Montreal Center
01:02PM 51.3167 -75.6167 204° Southwest 460 529 36,000  Level Montreal Center
01:03PM 51.2000 -75.7000 204° Southwest 460 529 36,000  Level Montreal Center
01:04PM 51.0833 -75.7833 204° Southwest 460 529 36,000  Level Montreal Center
01:05PM 50.9667 -75.8500 200° South 460 529 36,000  Level Montreal Center
01:06PM 50.8500 -75.9667 212° Southwest 460 529 36,000  Level Montreal Center
01:07PM 50.7333 -76.0500 204° Southwest 460 529 36,000  Level Montreal Center
01:08PM 50.6167 -76.1167 200° South 460 529 36,000  Level Montreal Center
01:09PM 50.5000 -76.2000 204° Southwest 460 529 36,000  Level Montreal Center
01:10PM 50.3833 -76.3167 213° Southwest 460 529 36,000  Level Montreal Center
01:11PM 50.2833 -76.3833 203° Southwest 460 529 36,000  Level Montreal Center
01:12PM 50.1500 -76.4667 202° Southwest 460 529 36,000  Level Montreal Center
01:13PM 50.0333 -76.5500 205° Southwest 450 518 36,000  Level Montreal Center
01:14PM 49.9167 -76.6167 200° South 450 518 36,000  Level Montreal Center
01:15PM 49.8000 -76.7167 209° Southwest 450 518 36,000  Level Montreal Center
01:16PM 49.6833 -76.8000 205° Southwest 460 529 36,000  Level Montreal Center
01:17PM 49.5667 -76.8667 200° South 450 518 36,000  Level Montreal Center
01:18PM 49.4500 -76.9500 205° Southwest 450 518 36,000  Level Montreal Center
01:19PM 49.3333 -77.0500 209° Southwest 480 552 36,000  Level Montreal Center
01:20PM 49.2333 -77.1167 204° Southwest 440 506 36,000  Level Montreal Center
01:21PM 49.1000 -77.2000 202° Southwest 460 529 36,000  Level Montreal Center
01:22PM 49.0000 -77.2667 204° Southwest 460 529 36,000  Level Montreal Center
01:23PM 48.8500 -77.3667 204° Southwest 460 529 36,000  Level Montreal Center
01:24PM 48.7500 -77.4500 209° Southwest 450 518 36,000  Level Montreal Center
01:25PM 48.6333 -77.5167 201° Southwest 460 529 36,000  Level Montreal Center
01:26PM 48.5167 -77.5833 201° Southwest 450 518 36,000  Level Montreal Center
01:27PM 48.4167 -77.6667 209° Southwest 450 518 36,000  Level Montreal Center
01:28PM 48.2833 -77.7333 198° South 450 518 36,000  Level Montreal Center
01:29PM 48.1833 -77.8333 214° Southwest 450 518 36,000  Level Montreal Center
01:30PM 48.0667 -77.9000 201° Southwest 450 518 36,000  Level Montreal Center
01:31PM 47.9333 -77.9667 199° South 460 529 36,000  Level Montreal Center
01:32PM 47.8167 -78.0500 206° Southwest 460 529 36,000  Level Montreal Center
01:33PM 47.7000 -78.0833 191° South 450 518 36,000  Level Montreal Center
01:34PM 47.5833 -78.1500 201° Southwest 450 518 36,000  Level Montreal Center
01:35PM 47.4667 -78.2333 206° Southwest 450 518 36,000  Level Montreal Center
01:36PM 47.3500 -78.3000 201° Southwest 450 518 36,000  Level Montreal Center
01:37PM 47.2333 -78.3667 201° Southwest 450 518 36,000  Level Montreal Center
01:38PM 47.1000 -78.4333 199° South 450 518 36,000  Level Montreal Center
01:39PM 46.9833 -78.5000 201° Southwest 450 518 36,000  Level Montreal Center
01:40PM 46.8833 -78.6000 214° Southwest 440 506 36,000  Level Montreal Center
01:41PM 46.8167 -78.6167 190° South 450 518 36,000  Level Toronto Center
01:42PM 46.7167 -78.6833 205° Southwest 450 518 36,000  Level Toronto Center
01:48PM 46.0336 -79.1880 205° Southwest 440 506 36,000  Level FlightAware ADS-B (CYYZ)
01:49PM 45.9775 -79.2270 206° Southwest 441 507 36,000  Level FlightAware ADS-B (CYYZ)
01:49PM 45.9240 -79.2641 206° Southwest 441 507 36,000  Level FlightAware ADS-B (CYYZ)
01:50PM 45.8677 -79.3028 206° Southwest 445 512 36,000  Level FlightAware ADS-B (CYYZ)
01:50PM 45.8153 -79.3389 206° Southwest 446 513 36,000  Level FlightAware ADS-B (CYYZ)
01:51PM 45.7635 -79.3745 206° Southwest 445 512 36,000  Level FlightAware ADS-B (CYYZ)
01:51PM 45.7001 -79.4179 206° Southwest 442 509 36,000  Level FlightAware ADS-B (CYYZ)
01:52PM 45.6462 -79.4549 206° Southwest 440 506 36,000  Level FlightAware ADS-B (CYYZ)
01:52PM 45.5925 -79.4917 206° Southwest 438 504 36,000  Level FlightAware ADS-B (CYYZ)
01:53PM 45.5379 -79.5290 206° Southwest 436 502 36,000  Level FlightAware ADS-B (CYYZ)
01:53PM 45.4825 -79.5666 205° Southwest 436 502 36,000  Level FlightAware ADS-B (CYYZ)
01:54PM 45.4288 -79.6030 205° Southwest 437 503 36,000  Level FlightAware ADS-B (CYYZ)
01:54PM 45.3837 -79.6335 205° Southwest 440 506 36,000  Level FlightAware ADS-B (CYYZ)
01:55PM 45.3371 -79.6651 205° Southwest 443 510 36,000  Level FlightAware ADS-B (CYYZ)
01:55PM 45.2777 -79.7051 205° Southwest 444 511 36,000  Level FlightAware ADS-B (CYYZ)
01:57PM 45.0966 -79.8268 205° Southwest 445 512 36,000  Level FlightAware ADS-B (CYYZ)
01:57PM 45.0934 -79.8289 206° Southwest 444 511 36,000  Level FlightAware ADS-B (EPWA / WAW)
01:57PM 45.0055 -79.8877 205° Southwest 442 509 36,000  Level FlightAware ADS-B (EPWA / WAW)
01:58PM 44.9886 -79.8989 205° Southwest 442 509 36,000  Level FlightAware ADS-B (CYYZ)
01:58PM 44.9338 -79.9355 205° Southwest 442 509 36,000  Level FlightAware ADS-B (EPWA / WAW)
01:58PM 44.9299 -79.9380 205° Southwest 443 510 36,000  Level FlightAware ADS-B (CYYZ)
01:59PM 44.8771 -79.9731 205° Southwest 443 510 36,000  Level FlightAware ADS-B (CYYZ)
01:59PM 44.8510 -79.9903 205° Southwest 442 509 36,000  Level FlightAware ADS-B (EPWA / WAW)
01:59PM 44.8179 -80.0122 205° Southwest 443 510 36,000  Level FlightAware ADS-B (CYYZ)
02:00PM 44.7788 -80.0381 205° Southwest 442 509 36,000  Level FlightAware ADS-B (EPWA / WAW)
02:00PM 44.7631 -80.0485 205° Southwest 442 509 36,000  Level FlightAware ADS-B (CYYZ)
02:00PM 44.7084 -80.0846 205° Southwest 443 510 36,000  Level FlightAware ADS-B (CYYZ)
02:00PM 44.6958 -80.0930 205° Southwest 442 509 36,000  Level FlightAware ADS-B (EPWA / WAW)
02:01PM 44.6520 -80.1218 205° Southwest 443 510 36,000  Level FlightAware ADS-B (CYYZ)
02:01PM 44.6071 -80.1513 205° Southwest 442 509 36,000  Level FlightAware ADS-B (EPWA / WAW)
02:01PM 44.5984 -80.1570 205° Southwest 443 510 36,000  Level FlightAware ADS-B (CYYZ)
02:02PM 44.5427 -80.1935 205° Southwest 441 507 36,000  Level FlightAware ADS-B (CYYZ)
02:02PM 44.5343 -80.1991 205° Southwest 439 505 36,000  Level FlightAware ADS-B (EPWA / WAW)
02:02PM 44.4854 -80.2310 205° Southwest 437 503 36,000  Level FlightAware ADS-B (CYYZ)
02:02PM 44.4687 -80.2420 205° Southwest 435 501 36,000  Level FlightAware ADS-B (EPWA / WAW)
02:03PM 44.4337 -80.2648 205° Southwest 437 503 36,000  Level FlightAware ADS-B (CYYZ)
02:03PM 44.3764 -80.3021 205° Southwest 439 505 36,000  Level FlightAware ADS-B (CYYZ)
02:04PM 44.3223 -80.3373 205° Southwest 440 506 36,000  Level FlightAware ADS-B (CYYZ)
02:04PM 44.2653 -80.3743 205° Southwest 441 507 36,000  Level FlightAware ADS-B (CYYZ)
02:05PM 44.2119 -80.4089 205° Southwest 441 507 36,000  Level FlightAware ADS-B (CYYZ)
02:05PM 44.1894 -80.4234 205° Southwest 440 506 36,000  Level FlightAware ADS-B (EPWA / WAW)
02:05PM 44.1553 -80.4455 205° Southwest 440 506 36,000  Level FlightAware ADS-B (CYYZ)
02:06PM 44.1003 -80.4809 205° Southwest 440 506 36,000  Level FlightAware ADS-B (CYYZ)
02:06PM 44.0449 -80.5166 205° Southwest 442 509 36,000  Level FlightAware ADS-B (CYYZ)
02:06PM 44.0606 -80.5065 25° Northeast 442 509 36,000  Level FlightAware ADS-B (EPWA / WAW)
02:07PM 43.9911 -80.5511 205° Southwest 443 510 36,000  Level FlightAware ADS-B (CYYZ)
02:07PM 43.9666 -80.5669 205° Southwest 444 511 36,000  Level FlightAware ADS-B (EPWA / WAW)
02:07PM 43.9341 -80.5877 205° Southwest 445 512 36,000  Level FlightAware ADS-B (CYYZ)
02:07PM 43.8982 -80.6105 205° Southwest 444 511 36,000  Level FlightAware ADS-B (EPWA / WAW)
02:08PM 43.8800 -80.6221 205° Southwest 445 512 36,000  Level FlightAware ADS-B (CYYZ)
02:08PM 43.8307 -80.6536 205° Southwest 445 512 36,000  Level FlightAware ADS-B (EPWA / WAW)
02:08PM 43.8318 -80.6529 25° Northeast 446 513 36,000  Level FlightAware ADS-B (CYYZ)
02:09PM 43.7699 -80.6924 205° Southwest 448 516 36,000  Level FlightAware ADS-B (CYYZ)
02:09PM 43.7507 -80.7046 205° Southwest 448 516 36,000  Level FlightAware ADS-B (EPWA / WAW)
02:09PM 43.7431 -80.7094 204° Southwest 448 516 36,000  Level FlightAware ADS-B (CYYZ)
02:10PM 43.6771 -80.7513 205° Southwest 446 513 36,000  Level FlightAware ADS-B (EPWA / WAW)
02:10PM 43.6558 -80.7647 205° Southwest 446 513 36,000  Level FlightAware ADS-B (CYYZ)
02:10PM 43.6135 -80.7915 205° Southwest 446 513 36,000  Level FlightAware ADS-B (CYYZ)
02:10PM 43.5685 -80.8200 205° Southwest 444 511 36,000  Level FlightAware ADS-B (EPWA / WAW)
02:11PM 43.5505 -80.8313 205° Southwest 445 512 36,000  Level FlightAware ADS-B (CYYZ)
02:11PM 43.4876 -80.8709 205° Southwest 444 511 36,000  Level FlightAware ADS-B (CYYZ)
02:12PM 43.4391 -80.9015 205° Southwest 443 510 36,000  Level FlightAware ADS-B (CYYZ)
02:12PM 43.4055 -80.9226 205° Southwest 442 509 36,000  Level FlightAware ADS-B (EPWA / WAW)
02:12PM 43.3726 -80.9432 204° Southwest 442 509 36,000  Level FlightAware ADS-B (CYYZ)
02:13PM 43.3307 -80.9694 204° Southwest 440 506 36,000  Level FlightAware ADS-B (EPWA / WAW)
02:13PM 43.3604 -80.9508 24° Northeast 441 507 36,000  Level FlightAware ADS-B (CYYZ)
02:13PM 43.2673 -81.0091 205° Southwest 439 505 36,000  Level FlightAware ADS-B (CYYZ)
02:13PM 43.2543 -81.0172 205° Southwest 440 506 36,000  Level FlightAware ADS-B (EPWA / WAW)
02:14PM 43.2558 -81.0163 24° Northeast 440 506 36,000  Level FlightAware ADS-B (CYYZ)
02:14PM 43.1625 -81.0744 204° Southwest 438 504 36,000  Level FlightAware ADS-B (EPWA / WAW)
02:14PM 43.1590 -81.0766 204° Southwest 438 504 36,000  Level FlightAware ADS-B (CYYZ)
02:15PM 43.0966 -81.1154 204° Southwest 438 504 36,000  Level FlightAware ADS-B (CYYZ)
02:15PM 43.0927 -81.1179 204° Southwest 438 504 36,000  Level FlightAware ADS-B (EPWA / WAW)
02:15PM 43.0432 -81.1487 204° Southwest 439 505 36,000  Level FlightAware ADS-B (CYYZ)
02:15PM 43.0063 -81.1714 204° Southwest 437 503 36,000  Level FlightAware ADS-B (EPWA / WAW)
02:16PM 42.9859 -81.1841 204° Southwest 437 503 36,000  Level FlightAware ADS-B (CYYZ)
02:16PM 42.9409 -81.2118 204° Southwest 435 501 36,000  Level FlightAware ADS-B (EPWA / WAW)
02:16PM 42.9311 -81.2178 204° Southwest 436 502 36,000  Level FlightAware ADS-B (CYYZ)
02:17PM 42.8781 -81.2506 204° Southwest 434 499 36,000  Level FlightAware ADS-B (CYYZ)
02:17PM 42.8380 -81.2752 204° Southwest 432 497 36,000  Level FlightAware ADS-B (EPWA / WAW)
02:17PM 42.8235 -81.2841 204° Southwest 433 498 36,000  Level FlightAware ADS-B (CYYZ)
02:18PM 42.7670 -81.3187 204° Southwest 432 497 36,000  Level FlightAware ADS-B (CYYZ)
02:18PM 42.7650 -81.3200 205° Southwest 431 496 36,000  Level FlightAware ADS-B (EPWA / WAW)
02:18PM 42.7140 -81.3511 204° Southwest 430 495 36,000  Level FlightAware ADS-B (CYYZ)
02:19PM 42.6585 -81.3852 204° Southwest 429 494 36,000  Level FlightAware ADS-B (CYYZ)
02:19PM 42.6062 -81.4171 204° Southwest 427 491 36,000  Level FlightAware ADS-B (CYYZ)
02:20PM 42.5499 -81.4514 204° Southwest 426 490 36,000  Level FlightAware ADS-B (CYYZ)
02:20PM 42.5365 -81.4595 204° Southwest 424 488 36,000  Level FlightAware ADS-B (EPWA / WAW)
02:20PM 42.4973 -81.4834 204° Southwest 424 488 36,000  Level FlightAware ADS-B (CYYZ)
02:21PM 42.4433 -81.5161 204° Southwest 423 487 36,000  Level FlightAware ADS-B (CYYZ)
02:21PM 42.3915 -81.5475 204° Southwest 423 487 36,000  Level FlightAware ADS-B (CYYZ)
02:22PM 42.3390 -81.5793 204° Southwest 424 488 36,000  Level FlightAware ADS-B (CYYZ)
02:22PM 42.2838 -81.6127 204° Southwest 426 490 36,000  Level FlightAware ADS-B (CYYZ)
02:23PM 42.2314 -81.6443 204° Southwest 426 490 36,000  Level FlightAware ADS-B (CYYZ)
02:23PM 42.1767 -81.6773 204° Southwest 426 490 36,000  Level FlightAware ADS-B (CYYZ)
02:24PM 42.1215 -81.7103 204° Southwest 427 491 36,000  Level FlightAware ADS-B (CYYZ)
02:24PM 42.0682 -81.7422 204° Southwest 427 491 36,000  Level FlightAware ADS-B (CYYZ)
02:25PM 42.0131 -81.7751 204° Southwest 425 489 36,000  Level FlightAware ADS-B (CYYZ)
02:25PM 41.9617 -81.8057 204° Southwest 424 488 36,000  Level FlightAware ADS-B (CYYZ)
02:26PM 41.9058 -81.8390 204° Southwest 424 488 36,000  Level FlightAware ADS-B (CYYZ)
02:26PM 41.8528 -81.8706 204° Southwest 423 487 36,000  Level FlightAware ADS-B (CYYZ)
02:27PM 41.8028 -81.9002 204° Southwest 423 487 36,000  Level FlightAware ADS-B (CYYZ)
02:27PM 41.7452 -81.9343 204° Southwest 422 486 36,000  Level FlightAware ADS-B (CYYZ)
02:28PM 41.6939 -81.9647 204° Southwest 422 486 36,000  Level FlightAware ADS-B (CYYZ)
02:28PM 41.6381 -81.9968 203° Southwest 424 488 36,000  Level FlightAware ADS-B (CYYZ)
02:29PM 41.5849 -82.0276 203° Southwest 424 488 36,000  Level FlightAware ADS-B (CYYZ)
02:29PM 41.5335 -82.0572 203° Southwest 425 489 36,000  Level FlightAware ADS-B (CYYZ)
02:30PM 41.4778 -82.0891 203° Southwest 425 489 36,000  Level FlightAware ADS-B (CYYZ)
02:30PM 41.4228 -82.1207 203° Southwest 426 490 36,000  Level FlightAware ADS-B (CYYZ)
02:31PM 41.3731 -82.1490 203° Southwest 426 490 36,000  Level FlightAware ADS-B (CYYZ)
02:31PM 41.3138 -82.1826 203° Southwest 425 489 36,000  Level FlightAware ADS-B (CYYZ)
02:32PM 41.2623 -82.2119 203° Southwest 425 489 36,000  Level FlightAware ADS-B (CYYZ)
02:32PM 41.2519 -82.2178 203° Southwest 425 489 36,000  Level FlightAware ADS-B (CYYZ)
02:33PM 41.1544 -82.2719 203° Southwest 422 486 36,000  Level Cleveland Center
02:34PM 41.0453 -82.3347 203° Southwest 423 487 36,000  Level Cleveland Center
02:35PM 40.9358 -82.3967 203° Southwest 423 487 36,000  Level Cleveland Center
02:41PM 40.1605 -82.5854 203° Southwest 441 507 36,000  Level FlightAware ADS-B
02:42PM 40.0784 -82.5928 184° South 451 519 36,000  Level FlightAware ADS-B
02:43PM 40.0014 -82.5985 183° South 450 518 36,000  Level FlightAware ADS-B
02:43PM 39.9115 -82.6047 183° South 451 519 36,000  Level FlightAware ADS-B
02:44PM 39.8732 -82.6073 183° South 453 521 36,000  Level FlightAware ADS-B
02:45PM 39.7030 -82.6187 183° South 455 524 36,000  Level FlightAware ADS-B
02:45PM 39.6444 -82.6226 183° South 453 521 36,000  Level FlightAware ADS-B
02:46PM 39.5571 -82.6285 183° South 452 520 36,000  Level FlightAware ADS-B
02:47PM 39.4663 -82.6346 183° South 451 519 36,000  Level FlightAware ADS-B
02:47PM 39.4042 -82.6387 183° South 451 519 36,000  Level FlightAware ADS-B
02:48PM 39.3390 -82.6432 183° South 450 518 36,000  Level FlightAware ADS-B
02:48PM 39.2609 -82.6484 183° South 451 519 36,000  Level FlightAware ADS-B
02:49PM 39.1727 -82.6541 183° South 451 519 36,000  Level FlightAware ADS-B
02:50PM 39.1053 -82.6586 183° South 451 519 36,000  Level FlightAware ADS-B
02:50PM 39.0435 -82.6627 183° South 451 519 36,000  Level FlightAware ADS-B
02:51PM 38.9640 -82.6680 183° South 448 516 36,000  Level FlightAware ADS-B
02:51PM 38.9016 -82.6721 183° South 446 513 36,000  Level FlightAware ADS-B
02:52PM 38.8345 -82.6765 183° South 444 511 36,000  Level FlightAware ADS-B
02:53PM 38.7472 -82.6823 183° South 444 511 36,000  Level FlightAware ADS-B
02:53PM 38.6815 -82.6866 183° South 445 512 36,000  Level FlightAware ADS-B
02:54PM 38.6231 -82.6897 183° South 442 509 36,000  Level Indianapolis Center
02:55PM 38.4997 -82.6989 183° South 442 509 36,000  Level Indianapolis Center
02:56PM 38.3764 -82.7075 183° South 442 509 36,000  Level Indianapolis Center
02:57PM 38.2539 -82.7142 182° South 442 509 36,000  Level Indianapolis Center
02:58PM 38.1308 -82.7233 183° South 442 509 36,000  Level Indianapolis Center
02:59PM 38.0094 -82.7308 183° South 440 506 36,000  Level Indianapolis Center
03:00PM 37.8669 -82.7411 183° South 439 505 36,000  Level Indianapolis Center
03:01PM 37.7467 -82.7503 183° South 438 504 36,000  Level Indianapolis Center
03:02PM 37.6378 -82.7828 193° South 406 467 36,000  Level Indianapolis Center
03:03PM 37.5431 -82.8408 206° Southwest 383 441 36,000  Level Indianapolis Center
03:04PM 37.4508 -82.9022 208° Southwest 376 433 36,000  Level Indianapolis Center
03:05PM 37.3578 -82.9625 207° Southwest 376 433 36,000  Level Indianapolis Center
03:06PM 37.2508 -83.0333 208° Southwest 376 433 36,000  Level Indianapolis Center
03:07PM 37.1583 -83.0917 207° Southwest 376 433 36,000  Level Indianapolis Center
03:08PM 37.0681 -83.1517 208° Southwest 374 430 36,000  Level Indianapolis Center
03:09PM 36.9764 -83.2117 208° Southwest 374 430 36,000  Level Indianapolis Center
03:10PM 36.8842 -83.2703 207° Southwest 374 430 36,000  Level Indianapolis Center
03:11PM 36.7761 -83.3403 207° Southwest 374 430 36,000  Level Indianapolis Center
03:12PM 36.6831 -83.3994 207° Southwest 374 430 36,000  Level Indianapolis Center
03:13PM 36.5900 -83.4594 207° Southwest 375 432 36,000  Level Indianapolis Center
03:14PM 36.4839 -83.5272 207° Southwest 380 437 36,000  Level Indianapolis Center
03:15PM 36.3883 -83.5883 207° Southwest 381 438 36,000  Level Indianapolis Center
03:16PM 36.2933 -83.6481 207° Southwest 381 438 36,000  Level Indianapolis Center
03:17PM 36.1981 -83.7086 207° Southwest 381 438 36,000  Level Indianapolis Center
03:18PM 36.1183 -83.7636 209° Southwest 388 447 36,000  Level Atlanta Center
03:19PM 36.0206 -83.8231 206° Southwest 388 447 36,000  Level Atlanta Center
03:20PM 35.9164 -83.8900 208° Southwest 388 447 36,000  Level Atlanta Center
03:21PM 35.8183 -83.9158 192° South 394 453 36,000  Level Atlanta Center
03:27PM 35.1823 -84.0698 192° South 398 458 36,000  Level FlightAware ADS-B (KDZJ)
03:28PM 35.0953 -84.0904 191° South 397 457 36,000  Level FlightAware ADS-B (KDZJ)
03:28PM 35.0300 -84.1059 191° South 395 455 36,000  Level FlightAware ADS-B (KDZJ)
03:29PM 34.9525 -84.1245 191° South 394 453 36,000  Level FlightAware ADS-B (KDZJ)
03:30PM 34.8753 -84.1429 191° South 394 453 36,000  Level FlightAware ADS-B (KDZJ)
03:30PM 34.8099 -84.1585 191° South 395 455 36,000  Level FlightAware ADS-B (KDZJ)
03:31PM 34.7278 -84.1781 191° South 396 456 36,000  Level FlightAware ADS-B (KDZJ)
03:32PM 34.6663 -84.1927 191° South 398 458 36,000  Level FlightAware ADS-B (KDZJ)
03:32PM 34.5831 -84.2122 191° South 397 457 36,000  Level FlightAware ADS-B (KDZJ)
03:33PM 34.5096 -84.2296 191° South 407 468 36,000  Level FlightAware ADS-B (KDZJ)
03:34PM 34.4347 -84.2473 191° South 407 468 36,000  Level FlightAware ADS-B (KDZJ)
03:34PM 34.3596 -84.2648 191° South 394 453 36,000  Level FlightAware ADS-B (KDZJ)
03:35PM 34.2875 -84.2819 191° South 393 452 36,000  Level FlightAware ADS-B (KDZJ)
03:36PM 34.2138 -84.2992 191° South 397 457 36,000  Level FlightAware ADS-B (KDZJ)
03:36PM 34.1411 -84.3163 191° South 408 470 36,000  Level FlightAware ADS-B (KDZJ)
03:37PM 34.0655 -84.3339 191° South 407 468 36,000  Level FlightAware ADS-B (KDZJ)
03:38PM 33.9929 -84.3508 191° South 406 467 36,000  Level FlightAware ADS-B (KDZJ)
03:38PM 33.9358 -84.3667 191° South 414 476 36,000 540 Level Atlanta Center
03:39PM 33.8231 -84.3939 191° South 409 471 36,900 480 Climbing Atlanta Center
03:40PM 33.7144 -84.4158 190° South 403 464 37,000  Climbing Atlanta Center
03:41PM 33.6142 -84.4378 190° South 398 458 37,000  Level Atlanta Center
03:42PM 33.4908 -84.4347 179° South 409 471 37,000  Level Atlanta Center
03:43PM 33.3761 -84.4344 180° South 415 478 37,000  Level Atlanta Center
03:44PM 33.2572 -84.4339 180° South 421 484 37,000  Level Atlanta Center
03:45PM 33.1425 -84.4308 179° South 421 484 37,000  Level Atlanta Center
03:46PM 33.0256 -84.4253 178° South 421 484 37,000  Level Atlanta Center
03:47PM 32.9064 -84.4272 181° South 421 484 37,000  Level Atlanta Center
03:48PM 32.7875 -84.4217 178° South 421 484 37,000  Level Atlanta Center
03:49PM 32.6664 -84.4189 179° South 421 484 37,000  Level Atlanta Center
03:50PM 32.5683 -84.4158 178° South 421 484 37,000  Level Atlanta Center
03:51PM 32.4244 -84.4128 179° South 426 490 37,000  Level Atlanta Center
03:52PM 32.3014 -84.4100 179° South 436 502 37,000  Level Atlanta Center
03:53PM 32.1803 -84.4069 179° South 441 507 37,000  Level Atlanta Center
03:54PM 32.0569 -84.4064 180° South 441 507 37,000  Level Atlanta Center
03:55PM 31.9008 -84.4025 179° South 439 505 37,000  Level Jacksonville Center
03:56PM 31.7756 -84.3981 178° South 439 505 37,000  Level Jacksonville Center
03:57PM 31.6525 -84.3958 179° South 439 505 37,000  Level Jacksonville Center
04:04PM 30.8722 -84.3801 179° South 448 516 37,000  Level FlightAware ADS-B (KTLH)
04:05PM 30.7537 -84.3777 179° South 451 519 37,000  Level FlightAware ADS-B (KTLH)
04:05PM 30.6467 -84.3700 176° South 463 533 37,000  Level FlightAware ADS-B (KTLH)
04:06PM 30.5797 -84.3551 169° South 471 542 37,000  Level FlightAware ADS-B (KTLH)
04:07PM 30.5018 -84.3272 163° South 479 551 37,000  Level FlightAware ADS-B (KTLH)
04:08PM 30.3759 -84.2551 154° Southeast 488 562 37,000  Level FlightAware ADS-B (KTLH)
04:08PM 30.2787 -84.1919 151° Southeast 489 563 37,000  Level FlightAware ADS-B (KTLH)
04:09PM 30.1818 -84.1289 151° Southeast 492 566 37,000  Level FlightAware ADS-B (KTLH)
04:10PM 30.1086 -84.0812 151° Southeast 492 566 37,000  Level FlightAware ADS-B (KTLH)
04:11PM 30.0233 -84.0257 151° Southeast 494 568 37,000  Level FlightAware ADS-B (KTLH)
04:11PM 29.9300 -83.9664 151° Southeast 495 570 37,000  Level Jacksonville Center
04:12PM 29.8139 -83.8883 150° Southeast 495 570 37,000  Level Jacksonville Center
04:13PM 29.6933 -83.8131 152° Southeast 495 570 37,000  Level Jacksonville Center
04:14PM 29.5686 -83.7356 152° Southeast 495 570 37,000  Level Jacksonville Center
04:15PM 29.4481 -83.6581 151° Southeast 500 575 37,000  Level Jacksonville Center
04:16PM 29.3253 -83.5808 151° Southeast 500 575 37,000  Level Jacksonville Center
04:17PM 29.2025 -83.5017 151° Southeast 500 575 37,000  Level Jacksonville Center
04:18PM 29.0817 -83.4225 150° Southeast 495 570 37,000  Level Jacksonville Center
04:24PM 28.4091 -82.9964 150° Southeast 497 572 37,000  Level FlightAware ADS-B (KMCO)
04:25PM 28.2744 -82.9123 151° Southeast 496 571 37,000  Level FlightAware ADS-B (KMCO)
04:26PM 28.1064 -82.8075 151° Southeast 497 572 37,000  Level FlightAware ADS-B (KMCO)
04:27PM 28.0428 -82.7680 151° Southeast 497 572 37,000  Level FlightAware ADS-B (KMCO)
04:28PM 27.9543 -82.7131 151° Southeast 496 571 37,000  Level FlightAware ADS-B (KMCO)
04:28PM 27.8748 -82.6635 151° Southeast 494 568 37,000  Level FlightAware ADS-B (KMCO)
04:29PM 27.8015 -82.6138 149° Southeast 496 571 37,000  Level FlightAware ADS-B (KMCO)
04:30PM 27.7385 -82.5713 149° Southeast 496 571 37,000  Level FlightAware ADS-B (KMCO)
04:30PM 27.6846 -82.5352 149° Southeast 496 571 37,000  Level FlightAware ADS-B (KMCO)
04:31PM 27.6191 -82.4916 149° Southeast 494 568 37,000  Level FlightAware ADS-B (KMCO)
04:31PM 27.5376 -82.4374 149° Southeast 494 568 37,000  Level FlightAware ADS-B (KMCO)
04:32PM 27.4665 -82.3903 150° Southeast 494 568 37,000  Level FlightAware ADS-B (KMCO)
04:32PM 27.4015 -82.3473 150° Southeast 492 566 37,000  Level FlightAware ADS-B (KMCO)
04:33PM 27.3432 -82.3088 150° Southeast 491 565 37,000  Level FlightAware ADS-B (KMCO)
04:33PM 27.2710 -82.2611 150° Southeast 490 564 37,000  Level FlightAware ADS-B (KMCO)
04:34PM 27.1686 -82.1935 150° Southeast 488 562 37,000  Level FlightAware ADS-B (KMCO)
04:35PM 27.1108 -82.1554 150° Southeast 489 563 37,000  Level FlightAware ADS-B (KMCO)
04:37PM 26.8774 -82.0055 150° Southeast 483 556 37,000  Level FlightAware ADS-B (KMCO)
04:37PM 26.8112 -81.9873 166° South 473 544 37,000  Level FlightAware ADS-B (KMCO)
04:38PM 26.7034 -81.9639 169° South 473 544 37,000  Level FlightAware ADS-B (KMCO)
04:39PM 26.6369 -81.9493 169° South 473 544 37,000  Level FlightAware ADS-B (KMCO)
04:39PM 26.5510 -81.9304 169° South 473 544 37,000  Level FlightAware ADS-B (KMCO)
04:40PM 26.4847 -81.9158 169° South 471 542 37,000  Level FlightAware ADS-B (KMCO)
04:40PM 26.4217 -81.9021 169° South 470 541 37,000  Level FlightAware ADS-B (KMCO)
04:41PM 26.3570 -81.8881 169° South 470 541 37,000  Level FlightAware ADS-B (KMCO)
04:41PM 26.2933 -81.8740 169° South 470 541 37,000  Level FlightAware ADS-B (KMCO)
04:42PM 26.1873 -81.8507 169° South 471 542 37,000  Level FlightAware ADS-B (KMCO)
04:43PM 26.1244 -81.8367 169° South 472 543 37,000  Level FlightAware ADS-B (KMCO)
04:43PM 26.0587 -81.8222 169° South 472 543 37,000  Level FlightAware ADS-B (KMCO)
04:44PM 25.9336 -81.7938 168° South 474 545 37,000  Level FlightAware ADS-B (KMCO)
04:45PM 25.8630 -81.7779 169° South 474 545 37,000  Level FlightAware ADS-B (KMCO)
04:45PM 25.8593 -81.7770 168° South 473 544 37,000  Level FlightAware ADS-B (KMCO)
04:49PM 25.2491 -81.6092 166° South 479 551 37,000  Level FlightAware ADS-B (KMCO)
04:50PM 25.1886 -81.5900 164° South 480 552 37,000  Level FlightAware ADS-B (KMCO)
04:51PM 25.0239 -81.5411 164° South 473 544 37,000  Level Miami Center
04:52PM 24.8978 -81.5019 164° South 473 544 37,000  Level Miami Center
04:53PM 24.7697 -81.4606 164° South 473 544 37,000 -60 Level Miami Center
04:54PM 24.6372 -81.4167 163° South 478 550 36,900 -1,260 Descending Miami Center
04:55PM 24.5089 -81.3778 165° South 483 556 34,500 -2,220 Descending Miami Center
04:56PM 24.3828 -81.3389 164° South 483 556 32,500 -1,860 Descending Miami Center
04:57PM 24.2628 -81.3006 164° South 467 537 30,800 -3,180 Descending Miami Center
04:58PM 24.1422 -81.2803 171° South 454 522 26,200 -4,260 Descending Miami Center
04:59PM 24.0269 -81.2992 189° South 426 490 22,300 -3,900 Descending Miami Center
05:01PM 23.9081 -81.3557 204° Southwest  Level FlightAware Approximate
05:08PM 23.3405 -82.0090 228° Southwest  Level Estimated
05:09PM 23.2592 -82.1019 226° Southwest  Level Estimated
05:10PM 23.1683 -82.1835 220° Southwest  Level FlightAware Approximate
05:11PM 23.0778 -82.2740 231° Southwest  Level FlightAware Approximate
05:12PM 22.9985 -82.3682 223° Southwest  Level FlightAware Approximate
05:13PM 22.9667 -82.4000 223° Southwest  Level FlightAware Approximate
05:14PM 22.9891 -82.4091 223° Southwest  Level Estimated
05:15PM 22.9891 -82.4091 223° Southwest  Level Estimated
05:16PM 22.9891 -82.4091 223° Southwest  Level Estimated
05:17PM 22.9891 -82.4091 223° Southwest  Level Estimated
05:18PM 22.9891 -82.4091 223° Southwest  Level Estimated
05:19PM 22.9891 -82.4091 223° Southwest  Level Estimated
05:20PM 22.9891 -82.4091 223° Southwest  Level Estimated
05:21PM 22.9891 -82.4091 223° Southwest  Level Estimated
05:22PM 22.9891 -82.4091 223° Southwest  Level Estimated
05:23PM 22.9891 -82.4091 223° Southwest  Level Estimated
05:24PM 22.9891 -82.4091 223° Southwest  Level Estimated
05:25PM 22.9891 -82.4091 223° Southwest  Level Estimated
05:26PM 22.9891 -82.4091 223° Southwest  Level Estimated
05:27PM 22.9891 -82.4091 223° Southwest  Level Estimated
05:28PM 22.9891 -82.4091 223° Southwest  Level Estimated
05:29PM 22.9891 -82.4091 223° Southwest  Level Estimated
05:30PM 22.9891 -82.4091 223° Southwest  Level Estimated
05:31PM 22.9891 -82.4091 223° Southwest  Level Estimated
05:32PM 22.9891 -82.4091 223° Southwest  Level Estimated
05:33PM 22.9891 -82.4091 223° Southwest  Level Estimated
05:34PM 22.9891 -82.4091 223° Southwest  Level Estimated
05:35PM 22.9891 -82.4091 223° Southwest  Level Estimated